sensor_id;sensor_type;location;lat;lon;timestamp;P1;durP1;ratioP1;P2;durP2;ratioP2
42146;SDS011;27815;43.410;11.852;2023-07-20T00:01:11;11.88;;;4.35;;
42146;SDS011;27815;43.410;11.852;2023-07-20T00:05:14;10.57;;;3.47;;
42146;SDS011;27815;43.410;11.852;2023-07-20T00:09:20;13.55;;;4.25;;
42146;SDS011;27815;43.410;11.852;2023-07-20T00:13:24;12.05;;;3.85;;
42146;SDS011;27815;43.410;11.852;2023-07-20T00:17:27;7.05;;;3.70;;
42146;SDS011;27815;43.410;11.852;2023-07-20T00:21:30;9.75;;;3.88;;
42146;SDS011;27815;43.410;11.852;2023-07-20T00:25:34;8.60;;;3.70;;
42146;SDS011;27815;43.410;11.852;2023-07-20T00:29:37;7.68;;;3.83;;
42146;SDS011;27815;43.410;11.852;2023-07-20T00:33:41;7.95;;;3.80;;
42146;SDS011;27815;43.410;11.852;2023-07-20T00:37:44;8.50;;;3.70;;
42146;SDS011;27815;43.410;11.852;2023-07-20T00:41:47;7.32;;;3.72;;
42146;SDS011;27815;43.410;11.852;2023-07-20T00:45:50;8.25;;;3.97;;
42146;SDS011;27815;43.410;11.852;2023-07-20T00:49:53;7.88;;;3.90;;
42146;SDS011;27815;43.410;11.852;2023-07-20T00:53:57;9.43;;;4.10;;
42146;SDS011;27815;43.410;11.852;2023-07-20T00:58:00;12.07;;;4.07;;
42146;SDS011;27815;43.410;11.852;2023-07-20T01:02:03;9.82;;;4.32;;
42146;SDS011;27815;43.410;11.852;2023-07-20T01:10:33;9.73;;;4.78;;
42146;SDS011;27815;43.410;11.852;2023-07-20T01:14:39;12.25;;;5.00;;
42146;SDS011;27815;43.410;11.852;2023-07-20T01:18:43;12.20;;;5.10;;
42146;SDS011;27815;43.410;11.852;2023-07-20T01:31:25;11.75;;;4.57;;
42146;SDS011;27815;43.410;11.852;2023-07-20T01:35:32;10.70;;;5.50;;
42146;SDS011;27815;43.410;11.852;2023-07-20T01:39:37;9.70;;;4.80;;
42146;SDS011;27815;43.410;11.852;2023-07-20T01:43:42;11.10;;;5.13;;
42146;SDS011;27815;43.410;11.852;2023-07-20T01:47:45;9.30;;;5.45;;
42146;SDS011;27815;43.410;11.852;2023-07-20T01:51:48;11.27;;;6.47;;
42146;SDS011;27815;43.410;11.852;2023-07-20T01:55:54;9.98;;;6.95;;
42146;SDS011;27815;43.410;11.852;2023-07-20T01:59:59;10.88;;;6.13;;
42146;SDS011;27815;43.410;11.852;2023-07-20T02:04:02;11.30;;;6.45;;
42146;SDS011;27815;43.410;11.852;2023-07-20T02:08:05;12.70;;;5.90;;
42146;SDS011;27815;43.410;11.852;2023-07-20T02:12:08;13.90;;;6.65;;
42146;SDS011;27815;43.410;11.852;2023-07-20T02:16:11;14.27;;;6.20;;
42146;SDS011;27815;43.410;11.852;2023-07-20T02:20:14;8.70;;;5.97;;
42146;SDS011;27815;43.410;11.852;2023-07-20T02:24:18;10.52;;;7.13;;
42146;SDS011;27815;43.410;11.852;2023-07-20T02:28:21;9.50;;;6.97;;
42146;SDS011;27815;43.410;11.852;2023-07-20T02:32:24;12.27;;;6.57;;
42146;SDS011;27815;43.410;11.852;2023-07-20T02:36:27;10.52;;;6.78;;
42146;SDS011;27815;43.410;11.852;2023-07-20T02:40:30;11.85;;;7.68;;
42146;SDS011;27815;43.410;11.852;2023-07-20T02:44:34;12.40;;;7.38;;
42146;SDS011;27815;43.410;11.852;2023-07-20T02:48:37;14.15;;;8.07;;
42146;SDS011;27815;43.410;11.852;2023-07-20T02:52:40;12.70;;;8.00;;
42146;SDS011;27815;43.410;11.852;2023-07-20T02:56:43;11.75;;;7.70;;
42146;SDS011;27815;43.410;11.852;2023-07-20T03:00:46;11.70;;;9.13;;
42146;SDS011;27815;43.410;11.852;2023-07-20T03:04:49;11.48;;;8.55;;
42146;SDS011;27815;43.410;11.852;2023-07-20T03:08:52;14.25;;;9.05;;
42146;SDS011;27815;43.410;11.852;2023-07-20T03:12:56;14.27;;;10.00;;
42146;SDS011;27815;43.410;11.852;2023-07-20T03:16:59;13.98;;;9.93;;
42146;SDS011;27815;43.410;11.852;2023-07-20T03:21:03;13.88;;;10.02;;
42146;SDS011;27815;43.410;11.852;2023-07-20T03:25:06;13.20;;;10.07;;
42146;SDS011;27815;43.410;11.852;2023-07-20T03:29:10;13.23;;;10.18;;
42146;SDS011;27815;43.410;11.852;2023-07-20T03:33:13;15.27;;;10.80;;
42146;SDS011;27815;43.410;11.852;2023-07-20T03:37:17;16.02;;;10.88;;
42146;SDS011;27815;43.410;11.852;2023-07-20T03:41:20;11.52;;;10.32;;
42146;SDS011;27815;43.410;11.852;2023-07-20T03:45:24;11.35;;;9.73;;
42146;SDS011;27815;43.410;11.852;2023-07-20T03:49:27;15.90;;;10.43;;
42146;SDS011;27815;43.410;11.852;2023-07-20T03:53:31;13.88;;;11.18;;
42146;SDS011;27815;43.410;11.852;2023-07-20T03:57:35;11.38;;;10.20;;
42146;SDS011;27815;43.410;11.852;2023-07-20T04:01:38;13.00;;;10.90;;
42146;SDS011;27815;43.410;11.852;2023-07-20T04:05:43;12.45;;;11.18;;
42146;SDS011;27815;43.410;11.852;2023-07-20T04:09:46;12.95;;;10.95;;
42146;SDS011;27815;43.410;11.852;2023-07-20T04:13:50;12.48;;;10.43;;
42146;SDS011;27815;43.410;11.852;2023-07-20T04:17:53;11.13;;;10.02;;
42146;SDS011;27815;43.410;11.852;2023-07-20T04:21:59;12.73;;;10.07;;
42146;SDS011;27815;43.410;11.852;2023-07-20T04:26:02;12.63;;;10.50;;
42146;SDS011;27815;43.410;11.852;2023-07-20T04:30:07;12.82;;;10.32;;
42146;SDS011;27815;43.410;11.852;2023-07-20T04:34:14;13.98;;;10.82;;
42146;SDS011;27815;43.410;11.852;2023-07-20T04:38:17;17.73;;;12.30;;
42146;SDS011;27815;43.410;11.852;2023-07-20T04:42:23;16.15;;;11.23;;
42146;SDS011;27815;43.410;11.852;2023-07-20T04:46:26;12.55;;;11.18;;
42146;SDS011;27815;43.410;11.852;2023-07-20T04:50:30;13.80;;;10.82;;
42146;SDS011;27815;43.410;11.852;2023-07-20T04:54:33;12.50;;;11.27;;
42146;SDS011;27815;43.410;11.852;2023-07-20T04:58:36;14.50;;;11.02;;
42146;SDS011;27815;43.410;11.852;2023-07-20T05:02:41;17.83;;;10.57;;
42146;SDS011;27815;43.410;11.852;2023-07-20T05:06:46;14.75;;;11.70;;
42146;SDS011;27815;43.410;11.852;2023-07-20T05:10:50;14.70;;;11.05;;
42146;SDS011;27815;43.410;11.852;2023-07-20T05:14:53;12.30;;;10.98;;
42146;SDS011;27815;43.410;11.852;2023-07-20T05:19:08;16.10;;;11.68;;
42146;SDS011;27815;43.410;11.852;2023-07-20T05:23:13;13.23;;;11.82;;
42146;SDS011;27815;43.410;11.852;2023-07-20T05:27:24;16.10;;;12.02;;
42146;SDS011;27815;43.410;11.852;2023-07-20T05:31:27;15.60;;;11.43;;
42146;SDS011;27815;43.410;11.852;2023-07-20T05:35:32;15.40;;;10.68;;
42146;SDS011;27815;43.410;11.852;2023-07-20T05:39:35;14.15;;;11.70;;
42146;SDS011;27815;43.410;11.852;2023-07-20T05:43:38;13.18;;;11.30;;
42146;SDS011;27815;43.410;11.852;2023-07-20T05:47:41;14.32;;;11.23;;
42146;SDS011;27815;43.410;11.852;2023-07-20T05:51:44;13.57;;;11.57;;
42146;SDS011;27815;43.410;11.852;2023-07-20T05:55:52;14.90;;;11.63;;
42146;SDS011;27815;43.410;11.852;2023-07-20T05:59:56;15.20;;;11.32;;
42146;SDS011;27815;43.410;11.852;2023-07-20T06:03:59;16.98;;;12.18;;
42146;SDS011;27815;43.410;11.852;2023-07-20T06:08:02;18.98;;;12.20;;
42146;SDS011;27815;43.410;11.852;2023-07-20T06:12:05;14.35;;;12.00;;
42146;SDS011;27815;43.410;11.852;2023-07-20T06:16:08;14.82;;;12.05;;
42146;SDS011;27815;43.410;11.852;2023-07-20T06:20:11;16.50;;;13.52;;
42146;SDS011;27815;43.410;11.852;2023-07-20T06:24:14;18.50;;;14.00;;
42146;SDS011;27815;43.410;11.852;2023-07-20T06:28:17;19.23;;;13.95;;
42146;SDS011;27815;43.410;11.852;2023-07-20T06:32:20;16.10;;;14.60;;
42146;SDS011;27815;43.410;11.852;2023-07-20T06:36:23;20.30;;;14.43;;
42146;SDS011;27815;43.410;11.852;2023-07-20T06:40:28;15.85;;;14.05;;
42146;SDS011;27815;43.410;11.852;2023-07-20T06:44:34;17.10;;;15.50;;
42146;SDS011;27815;43.410;11.852;2023-07-20T06:48:37;19.75;;;15.15;;
42146;SDS011;27815;43.410;11.852;2023-07-20T06:52:43;17.60;;;15.10;;
42146;SDS011;27815;43.410;11.852;2023-07-20T06:56:46;19.45;;;15.32;;
42146;SDS011;27815;43.410;11.852;2023-07-20T07:01:05;16.85;;;15.30;;
42146;SDS011;27815;43.410;11.852;2023-07-20T07:05:09;17.95;;;16.10;;
42146;SDS011;27815;43.410;11.852;2023-07-20T07:09:15;16.85;;;15.25;;
42146;SDS011;27815;43.410;11.852;2023-07-20T07:13:18;18.17;;;15.40;;
42146;SDS011;27815;43.410;11.852;2023-07-20T07:17:22;16.90;;;15.05;;
42146;SDS011;27815;43.410;11.852;2023-07-20T07:21:26;16.27;;;14.60;;
42146;SDS011;27815;43.410;11.852;2023-07-20T07:25:29;15.02;;;13.73;;
42146;SDS011;27815;43.410;11.852;2023-07-20T07:29:33;16.17;;;13.23;;
42146;SDS011;27815;43.410;11.852;2023-07-20T07:33:36;14.10;;;9.82;;
42146;SDS011;27815;43.410;11.852;2023-07-20T07:37:39;13.90;;;9.77;;
42146;SDS011;27815;43.410;11.852;2023-07-20T07:41:58;10.95;;;9.27;;
42146;SDS011;27815;43.410;11.852;2023-07-20T07:46:01;15.52;;;10.38;;
42146;SDS011;27815;43.410;11.852;2023-07-20T07:50:04;15.63;;;11.00;;
42146;SDS011;27815;43.410;11.852;2023-07-20T07:54:07;12.50;;;10.73;;
42146;SDS011;27815;43.410;11.852;2023-07-20T07:58:10;14.82;;;11.02;;
42146;SDS011;27815;43.410;11.852;2023-07-20T08:02:13;12.27;;;11.10;;
42146;SDS011;27815;43.410;11.852;2023-07-20T08:06:16;17.05;;;11.27;;
42146;SDS011;27815;43.410;11.852;2023-07-20T08:10:20;13.80;;;10.90;;
42146;SDS011;27815;43.410;11.852;2023-07-20T08:14:23;18.67;;;10.07;;
42146;SDS011;27815;43.410;11.852;2023-07-20T08:18:26;11.15;;;9.95;;
42146;SDS011;27815;43.410;11.852;2023-07-20T08:22:29;14.40;;;9.95;;
42146;SDS011;27815;43.410;11.852;2023-07-20T08:26:32;12.98;;;9.77;;
42146;SDS011;27815;43.410;11.852;2023-07-20T08:30:42;16.15;;;10.05;;
42146;SDS011;27815;43.410;11.852;2023-07-20T08:34:49;14.32;;;9.13;;
42146;SDS011;27815;43.410;11.852;2023-07-20T08:38:52;14.90;;;8.93;;
42146;SDS011;27815;43.410;11.852;2023-07-20T08:42:55;13.35;;;7.47;;
42146;SDS011;27815;43.410;11.852;2023-07-20T08:47:01;8.73;;;7.45;;
42146;SDS011;27815;43.410;11.852;2023-07-20T08:51:06;9.13;;;6.47;;
42146;SDS011;27815;43.410;11.852;2023-07-20T08:55:09;10.60;;;6.90;;
42146;SDS011;27815;43.410;11.852;2023-07-20T08:59:16;10.45;;;6.43;;
42146;SDS011;27815;43.410;11.852;2023-07-20T09:03:20;10.88;;;6.20;;
42146;SDS011;27815;43.410;11.852;2023-07-20T09:07:23;12.30;;;6.85;;
42146;SDS011;27815;43.410;11.852;2023-07-20T09:11:27;10.70;;;6.65;;
42146;SDS011;27815;43.410;11.852;2023-07-20T09:15:30;9.27;;;6.28;;
42146;SDS011;27815;43.410;11.852;2023-07-20T09:19:33;8.45;;;6.07;;
42146;SDS011;27815;43.410;11.852;2023-07-20T09:23:37;11.07;;;6.78;;
42146;SDS011;27815;43.410;11.852;2023-07-20T09:27:44;9.32;;;5.85;;
42146;SDS011;27815;43.410;11.852;2023-07-20T09:31:58;14.82;;;6.05;;
42146;SDS011;27815;43.410;11.852;2023-07-20T09:36:04;16.30;;;5.82;;
42146;SDS011;27815;43.410;11.852;2023-07-20T09:40:27;10.65;;;5.40;;
42146;SDS011;27815;43.410;11.852;2023-07-20T09:44:33;9.55;;;5.22;;
42146;SDS011;27815;43.410;11.852;2023-07-20T09:53:13;9.05;;;4.53;;
42146;SDS011;27815;43.410;11.852;2023-07-20T09:57:19;8.68;;;4.63;;
42146;SDS011;27815;43.410;11.852;2023-07-20T10:01:23;9.98;;;5.15;;
42146;SDS011;27815;43.410;11.852;2023-07-20T10:05:31;8.18;;;4.63;;
42146;SDS011;27815;43.410;11.852;2023-07-20T10:09:39;11.82;;;5.32;;
42146;SDS011;27815;43.410;11.852;2023-07-20T10:13:44;9.98;;;4.72;;
42146;SDS011;27815;43.410;11.852;2023-07-20T10:18:12;9.52;;;4.75;;
42146;SDS011;27815;43.410;11.852;2023-07-20T10:22:26;13.68;;;4.60;;
42146;SDS011;27815;43.410;11.852;2023-07-20T10:26:29;7.47;;;4.47;;
42146;SDS011;27815;43.410;11.852;2023-07-20T10:30:37;8.55;;;3.90;;
42146;SDS011;27815;43.410;11.852;2023-07-20T10:34:41;9.57;;;4.05;;
42146;SDS011;27815;43.410;11.852;2023-07-20T10:42:51;9.65;;;4.43;;
42146;SDS011;27815;43.410;11.852;2023-07-20T10:47:06;11.75;;;4.07;;
42146;SDS011;27815;43.410;11.852;2023-07-20T10:51:13;8.13;;;4.55;;
42146;SDS011;27815;43.410;11.852;2023-07-20T10:55:22;8.65;;;4.25;;
42146;SDS011;27815;43.410;11.852;2023-07-20T11:03:34;8.48;;;4.18;;
42146;SDS011;27815;43.410;11.852;2023-07-20T11:07:40;7.55;;;3.92;;
42146;SDS011;27815;43.410;11.852;2023-07-20T11:11:44;9.18;;;3.58;;
42146;SDS011;27815;43.410;11.852;2023-07-20T11:19:58;7.85;;;3.80;;
42146;SDS011;27815;43.410;11.852;2023-07-20T11:24:06;10.05;;;4.18;;
42146;SDS011;27815;43.410;11.852;2023-07-20T11:28:09;11.50;;;4.20;;
42146;SDS011;27815;43.410;11.852;2023-07-20T11:32:12;11.43;;;4.15;;
42146;SDS011;27815;43.410;11.852;2023-07-20T11:36:26;6.75;;;3.60;;
42146;SDS011;27815;43.410;11.852;2023-07-20T11:40:32;8.45;;;4.40;;
42146;SDS011;27815;43.410;11.852;2023-07-20T11:44:35;10.40;;;4.15;;
42146;SDS011;27815;43.410;11.852;2023-07-20T11:48:38;7.57;;;3.92;;
42146;SDS011;27815;43.410;11.852;2023-07-20T11:52:42;7.43;;;3.63;;
42146;SDS011;27815;43.410;11.852;2023-07-20T11:56:45;8.57;;;4.05;;
42146;SDS011;27815;43.410;11.852;2023-07-20T12:00:50;9.80;;;3.95;;
42146;SDS011;27815;43.410;11.852;2023-07-20T12:04:53;11.00;;;4.15;;
42146;SDS011;27815;43.410;11.852;2023-07-20T12:08:57;7.80;;;3.50;;
42146;SDS011;27815;43.410;11.852;2023-07-20T12:13:03;9.52;;;4.00;;
42146;SDS011;27815;43.410;11.852;2023-07-20T12:17:07;8.02;;;3.60;;
42146;SDS011;27815;43.410;11.852;2023-07-20T12:25:15;7.43;;;3.78;;
42146;SDS011;27815;43.410;11.852;2023-07-20T12:29:20;8.45;;;4.75;;
42146;SDS011;27815;43.410;11.852;2023-07-20T12:33:23;8.10;;;4.00;;
42146;SDS011;27815;43.410;11.852;2023-07-20T12:37:26;9.25;;;3.95;;
42146;SDS011;27815;43.410;11.852;2023-07-20T12:41:29;9.43;;;4.05;;
42146;SDS011;27815;43.410;11.852;2023-07-20T12:45:33;8.00;;;4.05;;
42146;SDS011;27815;43.410;11.852;2023-07-20T12:49:36;7.30;;;3.65;;
42146;SDS011;27815;43.410;11.852;2023-07-20T12:53:39;9.02;;;3.97;;
42146;SDS011;27815;43.410;11.852;2023-07-20T12:57:43;9.10;;;3.65;;
42146;SDS011;27815;43.410;11.852;2023-07-20T13:01:48;8.10;;;3.55;;
42146;SDS011;27815;43.410;11.852;2023-07-20T13:05:56;6.32;;;3.53;;
42146;SDS011;27815;43.410;11.852;2023-07-20T13:10:03;8.98;;;3.40;;
42146;SDS011;27815;43.410;11.852;2023-07-20T13:14:07;8.80;;;3.72;;
42146;SDS011;27815;43.410;11.852;2023-07-20T13:18:11;7.43;;;3.22;;
42146;SDS011;27815;43.410;11.852;2023-07-20T13:22:14;7.90;;;3.50;;
42146;SDS011;27815;43.410;11.852;2023-07-20T13:26:17;8.43;;;3.80;;
42146;SDS011;27815;43.410;11.852;2023-07-20T13:30:21;8.27;;;3.65;;
42146;SDS011;27815;43.410;11.852;2023-07-20T13:34:25;7.28;;;3.10;;
42146;SDS011;27815;43.410;11.852;2023-07-20T13:38:33;7.95;;;3.35;;
42146;SDS011;27815;43.410;11.852;2023-07-20T13:42:36;7.93;;;3.65;;
42146;SDS011;27815;43.410;11.852;2023-07-20T13:46:40;8.57;;;4.30;;
42146;SDS011;27815;43.410;11.852;2023-07-20T13:50:46;7.38;;;3.17;;
42146;SDS011;27815;43.410;11.852;2023-07-20T13:55:02;7.70;;;2.80;;
42146;SDS011;27815;43.410;11.852;2023-07-20T13:59:07;8.90;;;3.33;;
42146;SDS011;27815;43.410;11.852;2023-07-20T14:03:10;6.65;;;3.25;;
42146;SDS011;27815;43.410;11.852;2023-07-20T14:07:17;10.18;;;3.78;;
42146;SDS011;27815;43.410;11.852;2023-07-20T14:11:20;7.43;;;3.38;;
42146;SDS011;27815;43.410;11.852;2023-07-20T14:15:26;5.28;;;2.78;;
42146;SDS011;27815;43.410;11.852;2023-07-20T14:19:29;8.10;;;2.80;;
42146;SDS011;27815;43.410;11.852;2023-07-20T14:23:32;8.65;;;3.05;;
42146;SDS011;27815;43.410;11.852;2023-07-20T14:27:37;7.03;;;3.05;;
42146;SDS011;27815;43.410;11.852;2023-07-20T14:31:40;6.60;;;2.90;;
42146;SDS011;27815;43.410;11.852;2023-07-20T14:35:43;6.20;;;2.67;;
42146;SDS011;27815;43.410;11.852;2023-07-20T14:39:46;9.95;;;3.03;;
42146;SDS011;27815;43.410;11.852;2023-07-20T14:43:50;5.43;;;2.78;;
42146;SDS011;27815;43.410;11.852;2023-07-20T14:47:53;7.00;;;2.85;;
42146;SDS011;27815;43.410;11.852;2023-07-20T14:51:56;8.82;;;2.83;;
42146;SDS011;27815;43.410;11.852;2023-07-20T14:56:03;8.00;;;2.70;;
42146;SDS011;27815;43.410;11.852;2023-07-20T15:00:06;9.20;;;2.58;;
42146;SDS011;27815;43.410;11.852;2023-07-20T15:04:13;9.30;;;2.80;;
42146;SDS011;27815;43.410;11.852;2023-07-20T15:08:17;7.15;;;2.50;;
42146;SDS011;27815;43.410;11.852;2023-07-20T15:12:21;5.68;;;2.70;;
42146;SDS011;27815;43.410;11.852;2023-07-20T15:16:24;8.40;;;3.15;;
42146;SDS011;27815;43.410;11.852;2023-07-20T15:20:27;8.07;;;3.28;;
42146;SDS011;27815;43.410;11.852;2023-07-20T15:24:31;4.72;;;2.35;;
42146;SDS011;27815;43.410;11.852;2023-07-20T15:28:35;5.85;;;2.95;;
42146;SDS011;27815;43.410;11.852;2023-07-20T15:32:38;7.47;;;2.75;;
42146;SDS011;27815;43.410;11.852;2023-07-20T15:36:45;7.97;;;3.05;;
42146;SDS011;27815;43.410;11.852;2023-07-20T15:40:48;6.28;;;2.35;;
42146;SDS011;27815;43.410;11.852;2023-07-20T15:44:58;5.68;;;2.60;;
42146;SDS011;27815;43.410;11.852;2023-07-20T15:49:01;6.07;;;2.78;;
42146;SDS011;27815;43.410;11.852;2023-07-20T15:53:05;6.25;;;2.60;;
42146;SDS011;27815;43.410;11.852;2023-07-20T15:57:08;5.30;;;2.60;;
42146;SDS011;27815;43.410;11.852;2023-07-20T16:01:11;7.55;;;2.83;;
42146;SDS011;27815;43.410;11.852;2023-07-20T16:05:14;5.50;;;2.50;;
42146;SDS011;27815;43.410;11.852;2023-07-20T16:09:18;8.68;;;3.33;;
42146;SDS011;27815;43.410;11.852;2023-07-20T16:13:21;6.55;;;3.15;;
42146;SDS011;27815;43.410;11.852;2023-07-20T16:17:24;5.10;;;2.72;;
42146;SDS011;27815;43.410;11.852;2023-07-20T16:25:34;6.60;;;2.88;;
42146;SDS011;27815;43.410;11.852;2023-07-20T16:29:37;5.63;;;3.03;;
42146;SDS011;27815;43.410;11.852;2023-07-20T16:33:45;8.10;;;2.58;;
42146;SDS011;27815;43.410;11.852;2023-07-20T16:37:48;8.40;;;2.60;;
42146;SDS011;27815;43.410;11.852;2023-07-20T16:42:12;6.43;;;2.95;;
42146;SDS011;27815;43.410;11.852;2023-07-20T16:46:15;8.93;;;2.90;;
42146;SDS011;27815;43.410;11.852;2023-07-20T16:50:22;5.75;;;2.85;;
42146;SDS011;27815;43.410;11.852;2023-07-20T16:54:27;8.20;;;2.50;;
42146;SDS011;27815;43.410;11.852;2023-07-20T16:58:31;8.03;;;3.20;;
42146;SDS011;27815;43.410;11.852;2023-07-20T17:02:34;7.57;;;2.92;;
42146;SDS011;27815;43.410;11.852;2023-07-20T17:06:38;5.00;;;2.72;;
42146;SDS011;27815;43.410;11.852;2023-07-20T17:10:42;7.15;;;3.08;;
42146;SDS011;27815;43.410;11.852;2023-07-20T17:14:45;4.95;;;2.63;;
42146;SDS011;27815;43.410;11.852;2023-07-20T17:18:48;5.78;;;2.85;;
42146;SDS011;27815;43.410;11.852;2023-07-20T17:22:51;6.80;;;2.88;;
42146;SDS011;27815;43.410;11.852;2023-07-20T17:26:54;7.32;;;2.88;;
42146;SDS011;27815;43.410;11.852;2023-07-20T17:31:00;6.55;;;2.67;;
42146;SDS011;27815;43.410;11.852;2023-07-20T17:35:03;6.47;;;2.63;;
42146;SDS011;27815;43.410;11.852;2023-07-20T17:39:06;6.35;;;2.40;;
42146;SDS011;27815;43.410;11.852;2023-07-20T17:43:09;7.07;;;3.05;;
42146;SDS011;27815;43.410;11.852;2023-07-20T17:47:12;6.53;;;2.75;;
42146;SDS011;27815;43.410;11.852;2023-07-20T17:51:18;7.13;;;2.55;;
42146;SDS011;27815;43.410;11.852;2023-07-20T17:55:21;8.95;;;3.42;;
42146;SDS011;27815;43.410;11.852;2023-07-20T17:59:27;4.88;;;2.72;;
42146;SDS011;27815;43.410;11.852;2023-07-20T18:03:30;6.60;;;2.60;;
42146;SDS011;27815;43.410;11.852;2023-07-20T18:07:33;5.15;;;2.67;;
42146;SDS011;27815;43.410;11.852;2023-07-20T18:11:36;10.07;;;2.50;;
42146;SDS011;27815;43.410;11.852;2023-07-20T18:15:41;6.13;;;2.60;;
42146;SDS011;27815;43.410;11.852;2023-07-20T18:19:44;6.82;;;2.90;;
42146;SDS011;27815;43.410;11.852;2023-07-20T18:23:47;5.93;;;2.50;;
42146;SDS011;27815;43.410;11.852;2023-07-20T18:31:56;5.80;;;2.80;;
42146;SDS011;27815;43.410;11.852;2023-07-20T18:35:59;7.72;;;3.30;;
42146;SDS011;27815;43.410;11.852;2023-07-20T18:40:01;5.38;;;2.38;;
42146;SDS011;27815;43.410;11.852;2023-07-20T18:44:06;7.72;;;2.80;;
42146;SDS011;27815;43.410;11.852;2023-07-20T18:48:09;7.75;;;3.10;;
42146;SDS011;27815;43.410;11.852;2023-07-20T18:52:13;7.95;;;3.30;;
42146;SDS011;27815;43.410;11.852;2023-07-20T18:56:16;7.63;;;3.05;;
42146;SDS011;27815;43.410;11.852;2023-07-20T19:00:19;7.57;;;3.00;;
42146;SDS011;27815;43.410;11.852;2023-07-20T19:04:22;6.93;;;3.00;;
42146;SDS011;27815;43.410;11.852;2023-07-20T19:08:26;6.47;;;2.95;;
42146;SDS011;27815;43.410;11.852;2023-07-20T19:12:29;6.07;;;2.58;;
42146;SDS011;27815;43.410;11.852;2023-07-20T19:16:31;7.13;;;3.08;;
42146;SDS011;27815;43.410;11.852;2023-07-20T19:20:35;7.18;;;2.95;;
42146;SDS011;27815;43.410;11.852;2023-07-20T19:24:38;9.20;;;3.00;;
42146;SDS011;27815;43.410;11.852;2023-07-20T19:28:41;7.18;;;3.38;;
42146;SDS011;27815;43.410;11.852;2023-07-20T19:32:44;8.88;;;3.45;;
42146;SDS011;27815;43.410;11.852;2023-07-20T19:36:47;6.25;;;3.10;;
42146;SDS011;27815;43.410;11.852;2023-07-20T19:40:51;5.93;;;2.60;;
42146;SDS011;27815;43.410;11.852;2023-07-20T19:44:58;8.45;;;3.08;;
42146;SDS011;27815;43.410;11.852;2023-07-20T19:49:01;9.48;;;3.33;;
42146;SDS011;27815;43.410;11.852;2023-07-20T19:53:05;9.38;;;3.13;;
42146;SDS011;27815;43.410;11.852;2023-07-20T19:57:28;8.32;;;3.20;;
42146;SDS011;27815;43.410;11.852;2023-07-20T20:01:34;9.07;;;3.15;;
42146;SDS011;27815;43.410;11.852;2023-07-20T20:05:40;9.73;;;2.97;;
42146;SDS011;27815;43.410;11.852;2023-07-20T20:09:43;7.20;;;3.40;;
42146;SDS011;27815;43.410;11.852;2023-07-20T20:13:45;12.05;;;3.65;;
42146;SDS011;27815;43.410;11.852;2023-07-20T20:17:48;9.60;;;3.45;;
42146;SDS011;27815;43.410;11.852;2023-07-20T20:21:51;5.05;;;2.97;;
42146;SDS011;27815;43.410;11.852;2023-07-20T20:25:54;8.80;;;3.03;;
42146;SDS011;27815;43.410;11.852;2023-07-20T20:29:57;8.02;;;3.13;;
42146;SDS011;27815;43.410;11.852;2023-07-20T20:34:02;7.80;;;3.55;;
42146;SDS011;27815;43.410;11.852;2023-07-20T20:38:05;6.78;;;2.95;;
42146;SDS011;27815;43.410;11.852;2023-07-20T20:42:08;5.63;;;3.05;;
42146;SDS011;27815;43.410;11.852;2023-07-20T20:46:11;6.82;;;3.10;;
42146;SDS011;27815;43.410;11.852;2023-07-20T20:50:15;5.80;;;3.17;;
42146;SDS011;27815;43.410;11.852;2023-07-20T20:54:22;7.38;;;3.25;;
42146;SDS011;27815;43.410;11.852;2023-07-20T20:58:25;10.68;;;4.03;;
42146;SDS011;27815;43.410;11.852;2023-07-20T21:02:28;5.97;;;3.22;;
42146;SDS011;27815;43.410;11.852;2023-07-20T21:06:31;8.85;;;3.92;;
42146;SDS011;27815;43.410;11.852;2023-07-20T21:10:34;8.18;;;3.25;;
42146;SDS011;27815;43.410;11.852;2023-07-20T21:14:39;7.15;;;3.30;;
42146;SDS011;27815;43.410;11.852;2023-07-20T21:18:43;8.65;;;3.85;;
42146;SDS011;27815;43.410;11.852;2023-07-20T21:22:46;7.18;;;3.55;;
42146;SDS011;27815;43.410;11.852;2023-07-20T21:26:49;6.53;;;3.25;;
42146;SDS011;27815;43.410;11.852;2023-07-20T21:31:02;7.57;;;3.00;;
42146;SDS011;27815;43.410;11.852;2023-07-20T21:35:06;8.25;;;3.78;;
42146;SDS011;27815;43.410;11.852;2023-07-20T21:39:12;6.38;;;3.25;;
42146;SDS011;27815;43.410;11.852;2023-07-20T21:43:15;7.97;;;3.45;;
42146;SDS011;27815;43.410;11.852;2023-07-20T21:47:18;6.05;;;3.28;;
42146;SDS011;27815;43.410;11.852;2023-07-20T21:51:21;7.93;;;3.80;;
42146;SDS011;27815;43.410;11.852;2023-07-20T21:55:25;9.27;;;3.50;;
42146;SDS011;27815;43.410;11.852;2023-07-20T21:59:28;7.07;;;2.92;;
42146;SDS011;27815;43.410;11.852;2023-07-20T22:03:31;7.50;;;3.25;;
42146;SDS011;27815;43.410;11.852;2023-07-20T22:07:35;7.10;;;3.50;;
42146;SDS011;27815;43.410;11.852;2023-07-20T22:11:39;7.90;;;3.80;;
42146;SDS011;27815;43.410;11.852;2023-07-20T22:15:42;5.57;;;2.85;;
42146;SDS011;27815;43.410;11.852;2023-07-20T22:19:45;9.50;;;3.45;;
42146;SDS011;27815;43.410;11.852;2023-07-20T22:23:49;6.68;;;2.78;;
42146;SDS011;27815;43.410;11.852;2023-07-20T22:27:52;6.50;;;3.17;;
42146;SDS011;27815;43.410;11.852;2023-07-20T22:31:57;7.45;;;3.75;;
42146;SDS011;27815;43.410;11.852;2023-07-20T22:36:00;8.48;;;3.55;;
42146;SDS011;27815;43.410;11.852;2023-07-20T22:40:04;7.93;;;3.70;;
42146;SDS011;27815;43.410;11.852;2023-07-20T22:44:07;9.30;;;3.50;;
42146;SDS011;27815;43.410;11.852;2023-07-20T22:48:10;7.45;;;3.63;;
42146;SDS011;27815;43.410;11.852;2023-07-20T22:52:13;6.25;;;3.38;;
42146;SDS011;27815;43.410;11.852;2023-07-20T22:56:16;7.40;;;3.45;;
42146;SDS011;27815;43.410;11.852;2023-07-20T23:00:20;8.40;;;3.53;;
42146;SDS011;27815;43.410;11.852;2023-07-20T23:04:30;8.05;;;3.67;;
42146;SDS011;27815;43.410;11.852;2023-07-20T23:08:33;8.00;;;3.20;;
42146;SDS011;27815;43.410;11.852;2023-07-20T23:12:38;6.60;;;3.33;;
42146;SDS011;27815;43.410;11.852;2023-07-20T23:16:41;8.80;;;3.40;;
42146;SDS011;27815;43.410;11.852;2023-07-20T23:20:44;8.48;;;2.97;;
42146;SDS011;27815;43.410;11.852;2023-07-20T23:24:49;7.77;;;3.27;;
42146;SDS011;27815;43.410;11.852;2023-07-20T23:28:53;9.07;;;3.50;;
42146;SDS011;27815;43.410;11.852;2023-07-20T23:32:56;7.82;;;3.28;;
42146;SDS011;27815;43.410;11.852;2023-07-20T23:36:59;7.40;;;3.25;;
42146;SDS011;27815;43.410;11.852;2023-07-20T23:41:02;8.52;;;3.55;;
42146;SDS011;27815;43.410;11.852;2023-07-20T23:45:09;6.20;;;3.05;;
42146;SDS011;27815;43.410;11.852;2023-07-20T23:49:12;8.32;;;4.35;;
42146;SDS011;27815;43.410;11.852;2023-07-20T23:53:16;8.13;;;3.95;;
42146;SDS011;27815;43.410;11.852;2023-07-20T23:57:19;8.82;;;3.97;;
